sensor_id;sensor_type;location;lat;lon;timestamp;P1;durP1;ratioP1;P2;durP2;ratioP2
22965;SDS011;11649;48.090;9.754;2022-11-20T00:00:52;10.18;;;6.60;;
22965;SDS011;11649;48.090;9.754;2022-11-20T00:03:20;15.50;;;7.57;;
22965;SDS011;11649;48.090;9.754;2022-11-20T00:05:47;16.92;;;8.25;;
22965;SDS011;11649;48.090;9.754;2022-11-20T00:08:13;22.55;;;9.05;;
22965;SDS011;11649;48.090;9.754;2022-11-20T00:10:40;14.85;;;7.10;;
22965;SDS011;11649;48.090;9.754;2022-11-20T00:13:07;15.00;;;7.32;;
22965;SDS011;11649;48.090;9.754;2022-11-20T00:15:34;11.82;;;6.63;;
22965;SDS011;11649;48.090;9.754;2022-11-20T00:18:00;14.02;;;6.70;;
22965;SDS011;11649;48.090;9.754;2022-11-20T00:20:27;11.27;;;6.68;;
22965;SDS011;11649;48.090;9.754;2022-11-20T00:22:54;10.07;;;6.07;;
22965;SDS011;11649;48.090;9.754;2022-11-20T00:25:21;10.85;;;5.97;;
22965;SDS011;11649;48.090;9.754;2022-11-20T00:27:47;11.45;;;6.20;;
22965;SDS011;11649;48.090;9.754;2022-11-20T00:30:14;10.38;;;6.30;;
22965;SDS011;11649;48.090;9.754;2022-11-20T00:32:41;8.65;;;5.60;;
22965;SDS011;11649;48.090;9.754;2022-11-20T00:35:08;11.93;;;5.43;;
22965;SDS011;11649;48.090;9.754;2022-11-20T00:37:34;11.90;;;6.10;;
22965;SDS011;11649;48.090;9.754;2022-11-20T00:40:01;11.43;;;6.97;;
22965;SDS011;11649;48.090;9.754;2022-11-20T00:42:28;15.23;;;8.65;;
22965;SDS011;11649;48.090;9.754;2022-11-20T00:44:55;15.63;;;8.48;;
22965;SDS011;11649;48.090;9.754;2022-11-20T00:47:21;13.32;;;7.72;;
22965;SDS011;11649;48.090;9.754;2022-11-20T00:49:48;19.65;;;10.73;;
22965;SDS011;11649;48.090;9.754;2022-11-20T00:52:15;10.40;;;6.57;;
22965;SDS011;11649;48.090;9.754;2022-11-20T00:54:42;7.70;;;5.32;;
22965;SDS011;11649;48.090;9.754;2022-11-20T00:57:08;8.40;;;5.35;;
22965;SDS011;11649;48.090;9.754;2022-11-20T00:59:35;7.65;;;4.90;;
22965;SDS011;11649;48.090;9.754;2022-11-20T01:02:02;9.85;;;5.47;;
22965;SDS011;11649;48.090;9.754;2022-11-20T01:04:28;7.43;;;5.30;;
22965;SDS011;11649;48.090;9.754;2022-11-20T01:06:55;9.73;;;5.97;;
22965;SDS011;11649;48.090;9.754;2022-11-20T01:09:22;6.63;;;5.18;;
22965;SDS011;11649;48.090;9.754;2022-11-20T01:11:49;7.70;;;5.10;;
22965;SDS011;11649;48.090;9.754;2022-11-20T01:14:17;7.15;;;4.30;;
22965;SDS011;11649;48.090;9.754;2022-11-20T01:16:49;5.50;;;4.22;;
22965;SDS011;11649;48.090;9.754;2022-11-20T01:19:17;7.05;;;4.60;;
22965;SDS011;11649;48.090;9.754;2022-11-20T01:21:50;5.78;;;4.47;;
22965;SDS011;11649;48.090;9.754;2022-11-20T01:24:19;7.32;;;4.97;;
22965;SDS011;11649;48.090;9.754;2022-11-20T01:26:48;6.82;;;4.72;;
22965;SDS011;11649;48.090;9.754;2022-11-20T01:29:18;6.15;;;4.53;;
22965;SDS011;11649;48.090;9.754;2022-11-20T01:31:47;7.40;;;4.60;;
22965;SDS011;11649;48.090;9.754;2022-11-20T01:34:15;7.82;;;4.30;;
22965;SDS011;11649;48.090;9.754;2022-11-20T01:36:43;6.43;;;4.32;;
22965;SDS011;11649;48.090;9.754;2022-11-20T01:39:17;6.82;;;4.40;;
22965;SDS011;11649;48.090;9.754;2022-11-20T01:41:51;6.35;;;4.63;;
22965;SDS011;11649;48.090;9.754;2022-11-20T01:44:54;6.05;;;4.45;;
22965;SDS011;11649;48.090;9.754;2022-11-20T01:47:35;7.30;;;4.82;;
22965;SDS011;11649;48.090;9.754;2022-11-20T01:50:14;7.10;;;4.65;;
22965;SDS011;11649;48.090;9.754;2022-11-20T01:53:01;5.95;;;4.70;;
22965;SDS011;11649;48.090;9.754;2022-11-20T01:55:32;5.28;;;4.53;;
22965;SDS011;11649;48.090;9.754;2022-11-20T01:58:06;6.50;;;4.65;;
22965;SDS011;11649;48.090;9.754;2022-11-20T02:00:33;5.28;;;4.32;;
22965;SDS011;11649;48.090;9.754;2022-11-20T02:03:01;5.97;;;4.57;;
22965;SDS011;11649;48.090;9.754;2022-11-20T02:05:55;6.40;;;4.80;;
22965;SDS011;11649;48.090;9.754;2022-11-20T02:08:33;6.10;;;4.60;;
22965;SDS011;11649;48.090;9.754;2022-11-20T02:11:02;5.95;;;4.88;;
22965;SDS011;11649;48.090;9.754;2022-11-20T02:13:29;5.75;;;4.30;;
22965;SDS011;11649;48.090;9.754;2022-11-20T02:18:40;7.45;;;5.07;;
22965;SDS011;11649;48.090;9.754;2022-11-20T02:26:21;7.80;;;5.13;;
22965;SDS011;11649;48.090;9.754;2022-11-20T02:28:50;7.85;;;4.93;;
22965;SDS011;11649;48.090;9.754;2022-11-20T02:31:17;6.63;;;4.97;;
22965;SDS011;11649;48.090;9.754;2022-11-20T02:33:43;7.10;;;4.70;;
22965;SDS011;11649;48.090;9.754;2022-11-20T02:36:11;6.38;;;4.95;;
22965;SDS011;11649;48.090;9.754;2022-11-20T02:38:42;6.47;;;4.57;;
22965;SDS011;11649;48.090;9.754;2022-11-20T02:41:09;5.40;;;4.72;;
22965;SDS011;11649;48.090;9.754;2022-11-20T02:43:36;7.47;;;5.03;;
22965;SDS011;11649;48.090;9.754;2022-11-20T02:46:03;5.68;;;4.78;;
22965;SDS011;11649;48.090;9.754;2022-11-20T02:48:33;5.97;;;4.65;;
22965;SDS011;11649;48.090;9.754;2022-11-20T02:51:00;6.78;;;5.00;;
22965;SDS011;11649;48.090;9.754;2022-11-20T02:53:27;5.20;;;4.30;;
22965;SDS011;11649;48.090;9.754;2022-11-20T02:55:54;5.57;;;4.30;;
22965;SDS011;11649;48.090;9.754;2022-11-20T02:58:20;6.03;;;4.57;;
22965;SDS011;11649;48.090;9.754;2022-11-20T03:00:47;5.32;;;4.38;;
22965;SDS011;11649;48.090;9.754;2022-11-20T03:03:14;4.93;;;4.43;;
22965;SDS011;11649;48.090;9.754;2022-11-20T03:05:41;6.15;;;4.20;;
22965;SDS011;11649;48.090;9.754;2022-11-20T03:08:07;5.13;;;4.38;;
22965;SDS011;11649;48.090;9.754;2022-11-20T03:10:34;5.65;;;4.50;;
22965;SDS011;11649;48.090;9.754;2022-11-20T03:13:01;5.50;;;4.60;;
22965;SDS011;11649;48.090;9.754;2022-11-20T03:15:27;5.75;;;4.47;;
22965;SDS011;11649;48.090;9.754;2022-11-20T03:17:54;5.00;;;4.20;;
22965;SDS011;11649;48.090;9.754;2022-11-20T03:20:22;6.47;;;4.57;;
22965;SDS011;11649;48.090;9.754;2022-11-20T03:22:49;6.22;;;4.57;;
22965;SDS011;11649;48.090;9.754;2022-11-20T03:25:16;6.45;;;4.38;;
22965;SDS011;11649;48.090;9.754;2022-11-20T03:27:42;5.05;;;4.32;;
22965;SDS011;11649;48.090;9.754;2022-11-20T03:30:09;6.38;;;4.78;;
22965;SDS011;11649;48.090;9.754;2022-11-20T03:32:36;5.10;;;4.45;;
22965;SDS011;11649;48.090;9.754;2022-11-20T03:35:03;6.57;;;4.53;;
22965;SDS011;11649;48.090;9.754;2022-11-20T03:37:30;6.18;;;4.80;;
22965;SDS011;11649;48.090;9.754;2022-11-20T03:39:57;6.72;;;5.00;;
22965;SDS011;11649;48.090;9.754;2022-11-20T03:42:24;6.05;;;4.53;;
22965;SDS011;11649;48.090;9.754;2022-11-20T03:45:09;5.65;;;4.60;;
22965;SDS011;11649;48.090;9.754;2022-11-20T03:47:36;5.78;;;4.90;;
22965;SDS011;11649;48.090;9.754;2022-11-20T03:50:03;6.00;;;4.97;;
22965;SDS011;11649;48.090;9.754;2022-11-20T03:52:30;7.10;;;5.43;;
22965;SDS011;11649;48.090;9.754;2022-11-20T03:54:57;6.57;;;5.55;;
22965;SDS011;11649;48.090;9.754;2022-11-20T03:57:23;6.97;;;5.47;;
22965;SDS011;11649;48.090;9.754;2022-11-20T03:59:50;7.18;;;5.68;;
22965;SDS011;11649;48.090;9.754;2022-11-20T04:02:17;8.27;;;6.55;;
22965;SDS011;11649;48.090;9.754;2022-11-20T04:04:44;7.88;;;5.93;;
22965;SDS011;11649;48.090;9.754;2022-11-20T04:07:10;7.95;;;6.72;;
22965;SDS011;11649;48.090;9.754;2022-11-20T04:09:37;8.57;;;6.55;;
22965;SDS011;11649;48.090;9.754;2022-11-20T04:12:04;8.00;;;6.45;;
22965;SDS011;11649;48.090;9.754;2022-11-20T04:14:31;8.88;;;6.65;;
22965;SDS011;11649;48.090;9.754;2022-11-20T04:16:57;8.55;;;7.15;;
22965;SDS011;11649;48.090;9.754;2022-11-20T04:19:24;8.65;;;6.50;;
22965;SDS011;11649;48.090;9.754;2022-11-20T04:21:51;7.97;;;6.40;;
22965;SDS011;11649;48.090;9.754;2022-11-20T04:24:17;8.13;;;6.00;;
22965;SDS011;11649;48.090;9.754;2022-11-20T04:26:44;8.45;;;6.13;;
22965;SDS011;11649;48.090;9.754;2022-11-20T04:29:11;8.57;;;6.75;;
22965;SDS011;11649;48.090;9.754;2022-11-20T04:31:38;8.90;;;5.95;;
22965;SDS011;11649;48.090;9.754;2022-11-20T04:34:05;8.80;;;6.72;;
22965;SDS011;11649;48.090;9.754;2022-11-20T04:36:33;7.35;;;6.35;;
22965;SDS011;11649;48.090;9.754;2022-11-20T04:39:02;8.88;;;6.57;;
22965;SDS011;11649;48.090;9.754;2022-11-20T04:41:34;7.25;;;6.30;;
22965;SDS011;11649;48.090;9.754;2022-11-20T04:44:03;7.75;;;5.95;;
22965;SDS011;11649;48.090;9.754;2022-11-20T04:46:32;7.13;;;6.05;;
22965;SDS011;11649;48.090;9.754;2022-11-20T04:49:00;10.38;;;6.15;;
22965;SDS011;11649;48.090;9.754;2022-11-20T04:51:27;6.97;;;5.70;;
22965;SDS011;11649;48.090;9.754;2022-11-20T04:53:54;6.95;;;6.03;;
22965;SDS011;11649;48.090;9.754;2022-11-20T04:56:21;7.88;;;5.70;;
22965;SDS011;11649;48.090;9.754;2022-11-20T04:58:48;6.65;;;5.40;;
22965;SDS011;11649;48.090;9.754;2022-11-20T05:01:16;8.57;;;5.70;;
22965;SDS011;11649;48.090;9.754;2022-11-20T05:03:45;8.10;;;6.03;;
22965;SDS011;11649;48.090;9.754;2022-11-20T05:06:13;7.68;;;5.40;;
22965;SDS011;11649;48.090;9.754;2022-11-20T05:08:41;7.93;;;5.88;;
22965;SDS011;11649;48.090;9.754;2022-11-20T05:11:12;7.93;;;5.95;;
22965;SDS011;11649;48.090;9.754;2022-11-20T05:13:41;9.52;;;6.13;;
22965;SDS011;11649;48.090;9.754;2022-11-20T05:16:09;6.85;;;5.57;;
22965;SDS011;11649;48.090;9.754;2022-11-20T05:18:38;6.15;;;5.10;;
22965;SDS011;11649;48.090;9.754;2022-11-20T05:21:06;7.88;;;5.43;;
22965;SDS011;11649;48.090;9.754;2022-11-20T05:23:34;6.10;;;5.20;;
22965;SDS011;11649;48.090;9.754;2022-11-20T05:26:02;7.90;;;5.57;;
22965;SDS011;11649;48.090;9.754;2022-11-20T05:28:30;6.13;;;5.53;;
22965;SDS011;11649;48.090;9.754;2022-11-20T05:31:04;7.47;;;5.10;;
22965;SDS011;11649;48.090;9.754;2022-11-20T05:33:35;6.55;;;5.30;;
22965;SDS011;11649;48.090;9.754;2022-11-20T05:36:03;7.45;;;5.75;;
22965;SDS011;11649;48.090;9.754;2022-11-20T05:38:30;7.63;;;5.10;;
22965;SDS011;11649;48.090;9.754;2022-11-20T05:41:09;7.22;;;5.78;;
22965;SDS011;11649;48.090;9.754;2022-11-20T05:43:38;6.70;;;5.32;;
22965;SDS011;11649;48.090;9.754;2022-11-20T05:46:07;7.78;;;5.75;;
22965;SDS011;11649;48.090;9.754;2022-11-20T05:48:36;7.10;;;6.07;;
22965;SDS011;11649;48.090;9.754;2022-11-20T05:51:05;7.53;;;5.85;;
22965;SDS011;11649;48.090;9.754;2022-11-20T05:53:34;7.32;;;6.07;;
22965;SDS011;11649;48.090;9.754;2022-11-20T05:56:03;6.85;;;5.35;;
22965;SDS011;11649;48.090;9.754;2022-11-20T05:58:36;10.75;;;5.93;;
22965;SDS011;11649;48.090;9.754;2022-11-20T06:01:13;7.45;;;5.78;;
22965;SDS011;11649;48.090;9.754;2022-11-20T06:03:45;8.48;;;5.45;;
22965;SDS011;11649;48.090;9.754;2022-11-20T06:06:14;8.20;;;6.43;;
22965;SDS011;11649;48.090;9.754;2022-11-20T06:08:42;7.30;;;5.50;;
22965;SDS011;11649;48.090;9.754;2022-11-20T06:11:10;6.57;;;5.13;;
22965;SDS011;11649;48.090;9.754;2022-11-20T06:13:38;6.55;;;5.50;;
22965;SDS011;11649;48.090;9.754;2022-11-20T06:16:08;6.82;;;5.63;;
22965;SDS011;11649;48.090;9.754;2022-11-20T06:18:36;6.75;;;5.10;;
22965;SDS011;11649;48.090;9.754;2022-11-20T06:21:04;10.80;;;6.70;;
22965;SDS011;11649;48.090;9.754;2022-11-20T06:23:41;6.88;;;5.93;;
22965;SDS011;11649;48.090;9.754;2022-11-20T06:26:12;7.10;;;5.68;;
22965;SDS011;11649;48.090;9.754;2022-11-20T06:28:40;7.35;;;5.45;;
22965;SDS011;11649;48.090;9.754;2022-11-20T06:31:09;7.88;;;6.50;;
22965;SDS011;11649;48.090;9.754;2022-11-20T06:33:37;9.70;;;7.40;;
22965;SDS011;11649;48.090;9.754;2022-11-20T06:36:04;10.43;;;8.40;;
22965;SDS011;11649;48.090;9.754;2022-11-20T06:38:36;12.13;;;8.57;;
22965;SDS011;11649;48.090;9.754;2022-11-20T06:41:04;9.45;;;7.97;;
22965;SDS011;11649;48.090;9.754;2022-11-20T06:43:31;9.85;;;7.65;;
22965;SDS011;11649;48.090;9.754;2022-11-20T06:45:58;8.45;;;6.63;;
22965;SDS011;11649;48.090;9.754;2022-11-20T06:48:28;10.63;;;7.40;;
22965;SDS011;11649;48.090;9.754;2022-11-20T06:50:55;7.20;;;6.30;;
22965;SDS011;11649;48.090;9.754;2022-11-20T06:53:23;9.55;;;6.10;;
22965;SDS011;11649;48.090;9.754;2022-11-20T06:55:50;7.40;;;5.60;;
22965;SDS011;11649;48.090;9.754;2022-11-20T06:58:18;8.18;;;6.45;;
22965;SDS011;11649;48.090;9.754;2022-11-20T07:00:45;7.63;;;6.68;;
22965;SDS011;11649;48.090;9.754;2022-11-20T07:03:12;8.55;;;7.03;;
22965;SDS011;11649;48.090;9.754;2022-11-20T07:05:39;7.63;;;5.85;;
22965;SDS011;11649;48.090;9.754;2022-11-20T07:08:06;9.00;;;7.25;;
22965;SDS011;11649;48.090;9.754;2022-11-20T07:10:34;11.35;;;7.97;;
22965;SDS011;11649;48.090;9.754;2022-11-20T07:13:01;14.73;;;10.10;;
22965;SDS011;11649;48.090;9.754;2022-11-20T07:15:28;11.93;;;8.60;;
22965;SDS011;11649;48.090;9.754;2022-11-20T07:17:55;13.65;;;8.02;;
22965;SDS011;11649;48.090;9.754;2022-11-20T07:20:24;13.55;;;8.80;;
22965;SDS011;11649;48.090;9.754;2022-11-20T07:22:54;23.15;;;13.13;;
22965;SDS011;11649;48.090;9.754;2022-11-20T07:25:22;21.33;;;13.45;;
22965;SDS011;11649;48.090;9.754;2022-11-20T07:27:59;18.05;;;12.32;;
22965;SDS011;11649;48.090;9.754;2022-11-20T07:30:27;13.18;;;10.35;;
22965;SDS011;11649;48.090;9.754;2022-11-20T07:32:55;14.57;;;9.75;;
22965;SDS011;11649;48.090;9.754;2022-11-20T07:35:23;19.33;;;12.75;;
22965;SDS011;11649;48.090;9.754;2022-11-20T07:37:50;15.70;;;11.35;;
22965;SDS011;11649;48.090;9.754;2022-11-20T07:40:17;19.83;;;11.57;;
22965;SDS011;11649;48.090;9.754;2022-11-20T07:42:51;16.45;;;10.85;;
22965;SDS011;11649;48.090;9.754;2022-11-20T07:45:19;9.35;;;7.10;;
22965;SDS011;11649;48.090;9.754;2022-11-20T07:47:48;15.52;;;9.02;;
22965;SDS011;11649;48.090;9.754;2022-11-20T07:50:15;15.55;;;10.20;;
22965;SDS011;11649;48.090;9.754;2022-11-20T07:52:43;12.88;;;8.02;;
22965;SDS011;11649;48.090;9.754;2022-11-20T07:55:10;19.48;;;11.48;;
22965;SDS011;11649;48.090;9.754;2022-11-20T07:57:37;13.55;;;9.15;;
22965;SDS011;11649;48.090;9.754;2022-11-20T08:00:04;11.55;;;6.65;;
22965;SDS011;11649;48.090;9.754;2022-11-20T08:02:33;8.20;;;5.43;;
22965;SDS011;11649;48.090;9.754;2022-11-20T08:04:59;11.15;;;5.65;;
22965;SDS011;11649;48.090;9.754;2022-11-20T08:07:26;7.07;;;4.97;;
22965;SDS011;11649;48.090;9.754;2022-11-20T08:09:53;8.23;;;5.45;;
22965;SDS011;11649;48.090;9.754;2022-11-20T08:12:20;12.02;;;8.02;;
22965;SDS011;11649;48.090;9.754;2022-11-20T08:15:06;7.03;;;4.53;;
22965;SDS011;11649;48.090;9.754;2022-11-20T08:17:38;4.50;;;3.60;;
22965;SDS011;11649;48.090;9.754;2022-11-20T08:20:05;6.10;;;4.13;;
22965;SDS011;11649;48.090;9.754;2022-11-20T08:22:32;6.32;;;4.05;;
22965;SDS011;11649;48.090;9.754;2022-11-20T08:24:59;4.53;;;3.72;;
22965;SDS011;11649;48.090;9.754;2022-11-20T08:27:25;6.05;;;3.47;;
22965;SDS011;11649;48.090;9.754;2022-11-20T08:29:53;6.57;;;3.63;;
22965;SDS011;11649;48.090;9.754;2022-11-20T08:32:20;6.30;;;4.90;;
22965;SDS011;11649;48.090;9.754;2022-11-20T08:34:46;5.97;;;4.00;;
22965;SDS011;11649;48.090;9.754;2022-11-20T08:37:13;6.63;;;5.55;;
22965;SDS011;11649;48.090;9.754;2022-11-20T08:39:40;4.07;;;2.80;;
22965;SDS011;11649;48.090;9.754;2022-11-20T08:42:07;5.55;;;3.13;;
22965;SDS011;11649;48.090;9.754;2022-11-20T08:44:34;4.32;;;3.17;;
22965;SDS011;11649;48.090;9.754;2022-11-20T08:47:01;4.05;;;3.00;;
22965;SDS011;11649;48.090;9.754;2022-11-20T08:49:28;5.43;;;3.13;;
22965;SDS011;11649;48.090;9.754;2022-11-20T08:51:54;6.43;;;4.00;;
22965;SDS011;11649;48.090;9.754;2022-11-20T08:54:21;4.05;;;3.00;;
22965;SDS011;11649;48.090;9.754;2022-11-20T08:56:48;5.25;;;3.15;;
22965;SDS011;11649;48.090;9.754;2022-11-20T08:59:15;3.33;;;2.85;;
22965;SDS011;11649;48.090;9.754;2022-11-20T09:02:02;2.25;;;2.05;;
22965;SDS011;11649;48.090;9.754;2022-11-20T09:04:28;2.30;;;1.90;;
22965;SDS011;11649;48.090;9.754;2022-11-20T09:06:55;2.13;;;1.95;;
22965;SDS011;11649;48.090;9.754;2022-11-20T09:09:22;3.13;;;2.08;;
22965;SDS011;11649;48.090;9.754;2022-11-20T09:11:50;2.30;;;1.80;;
22965;SDS011;11649;48.090;9.754;2022-11-20T09:14:17;2.65;;;2.00;;
22965;SDS011;11649;48.090;9.754;2022-11-20T09:16:45;5.68;;;4.28;;
22965;SDS011;11649;48.090;9.754;2022-11-20T09:19:12;1.70;;;1.60;;
22965;SDS011;11649;48.090;9.754;2022-11-20T09:21:59;2.83;;;1.60;;
22965;SDS011;11649;48.090;9.754;2022-11-20T09:24:26;2.20;;;1.67;;
22965;SDS011;11649;48.090;9.754;2022-11-20T09:26:54;4.53;;;1.88;;
22965;SDS011;11649;48.090;9.754;2022-11-20T09:29:20;1.83;;;1.70;;
22965;SDS011;11649;48.090;9.754;2022-11-20T09:31:48;1.98;;;1.63;;
22965;SDS011;11649;48.090;9.754;2022-11-20T09:34:15;2.13;;;1.80;;
22965;SDS011;11649;48.090;9.754;2022-11-20T09:36:42;2.83;;;1.70;;
22965;SDS011;11649;48.090;9.754;2022-11-20T09:39:08;3.30;;;1.45;;
22965;SDS011;11649;48.090;9.754;2022-11-20T09:42:01;1.98;;;1.73;;
22965;SDS011;11649;48.090;9.754;2022-11-20T09:47:16;2.10;;;1.17;;
22965;SDS011;11649;48.090;9.754;2022-11-20T09:50:23;1.70;;;1.60;;
22965;SDS011;11649;48.090;9.754;2022-11-20T09:53:23;2.60;;;1.98;;
22965;SDS011;11649;48.090;9.754;2022-11-20T09:56:01;2.17;;;1.90;;
22965;SDS011;11649;48.090;9.754;2022-11-20T09:58:35;1.92;;;1.40;;
22965;SDS011;11649;48.090;9.754;2022-11-20T10:06:36;1.97;;;1.67;;
22965;SDS011;11649;48.090;9.754;2022-11-20T10:09:34;2.08;;;1.77;;
22965;SDS011;11649;48.090;9.754;2022-11-20T10:20:39;2.67;;;1.60;;
22965;SDS011;11649;48.090;9.754;2022-11-20T10:26:02;2.40;;;1.90;;
22965;SDS011;11649;48.090;9.754;2022-11-20T10:31:34;2.70;;;2.03;;
22965;SDS011;11649;48.090;9.754;2022-11-20T10:34:12;2.17;;;1.80;;
22965;SDS011;11649;48.090;9.754;2022-11-20T10:42:46;3.13;;;2.13;;
22965;SDS011;11649;48.090;9.754;2022-11-20T10:47:51;2.20;;;1.80;;
22965;SDS011;11649;48.090;9.754;2022-11-20T10:50:49;2.28;;;1.60;;
22965;SDS011;11649;48.090;9.754;2022-11-20T10:53:34;2.35;;;2.00;;
22965;SDS011;11649;48.090;9.754;2022-11-20T10:56:40;2.90;;;2.40;;
22965;SDS011;11649;48.090;9.754;2022-11-20T11:02:17;3.53;;;2.20;;
22965;SDS011;11649;48.090;9.754;2022-11-20T11:04:51;2.58;;;1.95;;
22965;SDS011;11649;48.090;9.754;2022-11-20T11:09:55;2.00;;;1.80;;
22965;SDS011;11649;48.090;9.754;2022-11-20T11:12:27;1.98;;;1.80;;
22965;SDS011;11649;48.090;9.754;2022-11-20T11:14:55;4.10;;;3.40;;
22965;SDS011;11649;48.090;9.754;2022-11-20T11:17:27;3.53;;;2.75;;
22965;SDS011;11649;48.090;9.754;2022-11-20T11:20:00;3.47;;;3.10;;
22965;SDS011;11649;48.090;9.754;2022-11-20T11:22:33;2.58;;;1.75;;
22965;SDS011;11649;48.090;9.754;2022-11-20T11:25:11;4.90;;;2.60;;
22965;SDS011;11649;48.090;9.754;2022-11-20T11:27:46;2.45;;;1.75;;
22965;SDS011;11649;48.090;9.754;2022-11-20T11:30:15;3.58;;;2.00;;
22965;SDS011;11649;48.090;9.754;2022-11-20T11:32:43;3.10;;;1.90;;
22965;SDS011;11649;48.090;9.754;2022-11-20T11:35:19;3.35;;;2.00;;
22965;SDS011;11649;48.090;9.754;2022-11-20T11:40:14;4.75;;;1.88;;
22965;SDS011;11649;48.090;9.754;2022-11-20T11:42:53;2.55;;;2.30;;
22965;SDS011;11649;48.090;9.754;2022-11-20T11:45:24;2.63;;;2.27;;
22965;SDS011;11649;48.090;9.754;2022-11-20T11:47:52;2.35;;;2.08;;
22965;SDS011;11649;48.090;9.754;2022-11-20T11:50:23;2.90;;;2.30;;
22965;SDS011;11649;48.090;9.754;2022-11-20T11:53:12;2.42;;;2.10;;
22965;SDS011;11649;48.090;9.754;2022-11-20T11:58:47;1.95;;;1.80;;
22965;SDS011;11649;48.090;9.754;2022-11-20T12:01:29;2.35;;;2.10;;
22965;SDS011;11649;48.090;9.754;2022-11-20T12:09:20;4.20;;;3.40;;
22965;SDS011;11649;48.090;9.754;2022-11-20T12:11:52;3.83;;;2.72;;
22965;SDS011;11649;48.090;9.754;2022-11-20T12:14:56;4.32;;;3.10;;
22965;SDS011;11649;48.090;9.754;2022-11-20T12:17:24;13.35;;;7.90;;
22965;SDS011;11649;48.090;9.754;2022-11-20T12:19:51;7.70;;;4.45;;
22965;SDS011;11649;48.090;9.754;2022-11-20T12:30:24;5.85;;;3.47;;
22965;SDS011;11649;48.090;9.754;2022-11-20T12:47:17;2.15;;;1.00;;
22965;SDS011;11649;48.090;9.754;2022-11-20T12:58:20;2.83;;;1.10;;
22965;SDS011;11649;48.090;9.754;2022-11-20T13:04:18;4.57;;;2.70;;
22965;SDS011;11649;48.090;9.754;2022-11-20T13:06:53;4.10;;;1.98;;
22965;SDS011;11649;48.090;9.754;2022-11-20T13:09:21;3.20;;;1.90;;
22965;SDS011;11649;48.090;9.754;2022-11-20T13:14:37;1.98;;;1.60;;
22965;SDS011;11649;48.090;9.754;2022-11-20T13:17:13;2.58;;;1.38;;
22965;SDS011;11649;48.090;9.754;2022-11-20T13:19:41;1.80;;;1.40;;
22965;SDS011;11649;48.090;9.754;2022-11-20T13:22:08;2.95;;;1.95;;
22965;SDS011;11649;48.090;9.754;2022-11-20T13:24:35;2.88;;;2.00;;
22965;SDS011;11649;48.090;9.754;2022-11-20T13:27:17;4.05;;;1.52;;
22965;SDS011;11649;48.090;9.754;2022-11-20T13:30:32;1.52;;;1.30;;
22965;SDS011;11649;48.090;9.754;2022-11-20T13:32:50;2.67;;;1.50;;
22965;SDS011;11649;48.090;9.754;2022-11-20T13:35:30;1.20;;;1.00;;
22965;SDS011;11649;48.090;9.754;2022-11-20T13:40:34;2.35;;;1.20;;
22965;SDS011;11649;48.090;9.754;2022-11-20T13:45:57;3.15;;;1.83;;
22965;SDS011;11649;48.090;9.754;2022-11-20T13:48:30;3.70;;;1.88;;
22965;SDS011;11649;48.090;9.754;2022-11-20T13:59:02;3.70;;;2.72;;
22965;SDS011;11649;48.090;9.754;2022-11-20T14:01:40;1.57;;;1.47;;
22965;SDS011;11649;48.090;9.754;2022-11-20T14:04:15;2.60;;;1.50;;
22965;SDS011;11649;48.090;9.754;2022-11-20T14:06:47;1.73;;;1.50;;
22965;SDS011;11649;48.090;9.754;2022-11-20T14:12:19;1.60;;;1.48;;
22965;SDS011;11649;48.090;9.754;2022-11-20T14:14:49;2.70;;;1.30;;
22965;SDS011;11649;48.090;9.754;2022-11-20T14:17:22;1.75;;;1.30;;
22965;SDS011;11649;48.090;9.754;2022-11-20T14:20:06;2.40;;;1.98;;
22965;SDS011;11649;48.090;9.754;2022-11-20T14:22:47;3.50;;;2.08;;
22965;SDS011;11649;48.090;9.754;2022-11-20T14:27:43;3.50;;;2.10;;
22965;SDS011;11649;48.090;9.754;2022-11-20T14:30:25;5.30;;;2.65;;
22965;SDS011;11649;48.090;9.754;2022-11-20T14:32:54;2.70;;;1.95;;
22965;SDS011;11649;48.090;9.754;2022-11-20T14:35:27;1.48;;;1.38;;
22965;SDS011;11649;48.090;9.754;2022-11-20T14:37:55;3.05;;;2.30;;
22965;SDS011;11649;48.090;9.754;2022-11-20T14:43:22;4.68;;;3.30;;
22965;SDS011;11649;48.090;9.754;2022-11-20T14:48:51;2.90;;;2.35;;
22965;SDS011;11649;48.090;9.754;2022-11-20T14:51:34;4.82;;;3.70;;
22965;SDS011;11649;48.090;9.754;2022-11-20T14:54:17;3.97;;;2.85;;
22965;SDS011;11649;48.090;9.754;2022-11-20T14:56:57;4.35;;;3.10;;
22965;SDS011;11649;48.090;9.754;2022-11-20T14:59:27;4.07;;;2.97;;
22965;SDS011;11649;48.090;9.754;2022-11-20T15:01:59;4.07;;;2.20;;
22965;SDS011;11649;48.090;9.754;2022-11-20T15:04:29;2.95;;;2.10;;
22965;SDS011;11649;48.090;9.754;2022-11-20T15:06:57;5.63;;;3.17;;
22965;SDS011;11649;48.090;9.754;2022-11-20T15:09:26;4.20;;;3.20;;
22965;SDS011;11649;48.090;9.754;2022-11-20T15:11:57;4.93;;;3.63;;
22965;SDS011;11649;48.090;9.754;2022-11-20T15:14:27;5.25;;;3.60;;
22965;SDS011;11649;48.090;9.754;2022-11-20T15:16:55;4.00;;;2.60;;
22965;SDS011;11649;48.090;9.754;2022-11-20T15:19:23;5.13;;;3.60;;
22965;SDS011;11649;48.090;9.754;2022-11-20T15:21:52;2.17;;;1.90;;
22965;SDS011;11649;48.090;9.754;2022-11-20T15:24:19;3.65;;;2.35;;
22965;SDS011;11649;48.090;9.754;2022-11-20T15:26:47;2.65;;;2.30;;
22965;SDS011;11649;48.090;9.754;2022-11-20T15:29:14;2.75;;;2.33;;
22965;SDS011;11649;48.090;9.754;2022-11-20T15:31:44;5.65;;;3.78;;
22965;SDS011;11649;48.090;9.754;2022-11-20T15:34:12;8.77;;;6.10;;
22965;SDS011;11649;48.090;9.754;2022-11-20T15:36:41;6.90;;;4.38;;
22965;SDS011;11649;48.090;9.754;2022-11-20T15:39:08;11.93;;;8.73;;
22965;SDS011;11649;48.090;9.754;2022-11-20T15:41:37;15.23;;;9.85;;
22965;SDS011;11649;48.090;9.754;2022-11-20T15:44:04;6.72;;;4.38;;
22965;SDS011;11649;48.090;9.754;2022-11-20T15:46:31;4.28;;;3.15;;
22965;SDS011;11649;48.090;9.754;2022-11-20T15:49:04;2.65;;;2.30;;
22965;SDS011;11649;48.090;9.754;2022-11-20T15:51:36;5.88;;;3.70;;
22965;SDS011;11649;48.090;9.754;2022-11-20T15:54:11;9.90;;;7.18;;
22965;SDS011;11649;48.090;9.754;2022-11-20T15:56:47;11.13;;;6.93;;
22965;SDS011;11649;48.090;9.754;2022-11-20T15:59:14;10.27;;;6.80;;
22965;SDS011;11649;48.090;9.754;2022-11-20T16:01:41;12.02;;;7.35;;
22965;SDS011;11649;48.090;9.754;2022-11-20T16:04:12;6.55;;;5.15;;
22965;SDS011;11649;48.090;9.754;2022-11-20T16:06:40;6.43;;;4.55;;
22965;SDS011;11649;48.090;9.754;2022-11-20T16:09:07;9.80;;;5.55;;
22965;SDS011;11649;48.090;9.754;2022-11-20T16:11:34;9.38;;;6.40;;
22965;SDS011;11649;48.090;9.754;2022-11-20T16:14:05;16.90;;;11.30;;
22965;SDS011;11649;48.090;9.754;2022-11-20T16:16:51;13.45;;;9.07;;
22965;SDS011;11649;48.090;9.754;2022-11-20T16:19:18;17.42;;;11.30;;
22965;SDS011;11649;48.090;9.754;2022-11-20T16:21:45;15.65;;;10.15;;
22965;SDS011;11649;48.090;9.754;2022-11-20T16:24:12;15.10;;;9.18;;
22965;SDS011;11649;48.090;9.754;2022-11-20T16:26:40;6.57;;;4.45;;
22965;SDS011;11649;48.090;9.754;2022-11-20T16:29:08;11.35;;;7.70;;
22965;SDS011;11649;48.090;9.754;2022-11-20T16:31:36;4.20;;;2.90;;
22965;SDS011;11649;48.090;9.754;2022-11-20T16:34:04;5.88;;;3.53;;
22965;SDS011;11649;48.090;9.754;2022-11-20T16:36:41;3.80;;;2.70;;
22965;SDS011;11649;48.090;9.754;2022-11-20T16:39:09;5.18;;;3.13;;
22965;SDS011;11649;48.090;9.754;2022-11-20T16:41:37;6.95;;;4.50;;
22965;SDS011;11649;48.090;9.754;2022-11-20T16:44:08;5.70;;;3.40;;
22965;SDS011;11649;48.090;9.754;2022-11-20T16:46:36;6.40;;;3.63;;
22965;SDS011;11649;48.090;9.754;2022-11-20T16:49:08;4.97;;;3.30;;
22965;SDS011;11649;48.090;9.754;2022-11-20T16:51:38;5.95;;;4.22;;
22965;SDS011;11649;48.090;9.754;2022-11-20T16:54:06;9.45;;;5.28;;
22965;SDS011;11649;48.090;9.754;2022-11-20T16:56:34;4.47;;;3.22;;
22965;SDS011;11649;48.090;9.754;2022-11-20T16:59:02;5.95;;;3.95;;
22965;SDS011;11649;48.090;9.754;2022-11-20T17:01:29;6.03;;;3.97;;